createdAt,value
2018-07-23T00:00:36.920Z,78.58
2018-07-23T00:01:36.922Z,78.58
2018-07-23T00:02:36.986Z,78.67
2018-07-23T00:03:36.949Z,79.06
2018-07-23T00:04:36.968Z,78.86
2018-07-23T00:05:36.977Z,78.67
2018-07-23T00:06:36.997Z,79.06
2018-07-23T00:07:37.009Z,79.54
2018-07-23T00:08:37.010Z,79.16
2018-07-23T00:09:37.016Z,79.25
2018-07-23T00:10:37.050Z,79.16
2018-07-23T00:11:37.048Z,79.44
2018-07-23T00:12:37.064Z,79.44
2018-07-23T00:13:37.073Z,79.25
2018-07-23T00:14:37.089Z,79.64
2018-07-23T00:15:37.091Z,79.64
2018-07-23T00:16:37.113Z,79.93
2018-07-23T00:17:37.126Z,80.02
2018-07-23T00:18:37.139Z,80.02
2018-07-23T00:19:37.239Z,80.12
2018-07-23T00:20:37.162Z,80.12
2018-07-23T00:21:37.175Z,80.41
2018-07-23T00:22:37.188Z,80.56
2018-07-23T00:23:37.201Z,80.41
2018-07-23T00:24:37.216Z,80.66
2018-07-23T00:25:37.221Z,80.41
2018-07-23T00:26:37.237Z,80.56
2018-07-23T00:27:37.252Z,80.22
2018-07-23T00:28:37.263Z,80.89
2018-07-23T00:29:37.272Z,80.60
2018-07-23T00:30:37.287Z,81.24
2018-07-23T00:31:37.295Z,80.99
2018-07-23T00:32:37.306Z,80.76
2018-07-23T00:33:37.322Z,80.94
2018-07-23T00:34:37.336Z,81.09
2018-07-23T00:35:37.357Z,81.43
2018-07-23T00:36:37.380Z,81.24
2018-07-23T00:37:37.381Z,81.24
2018-07-23T00:38:37.389Z,81.72
2018-07-23T00:39:37.407Z,81.72
2018-07-23T00:40:37.422Z,81.52
2018-07-23T00:41:37.425Z,81.91
2018-07-23T00:42:37.436Z,82.20
2018-07-23T00:43:37.448Z,82.01
2018-07-23T00:44:37.464Z,82.29
2018-07-23T00:45:37.473Z,82.29
2018-07-23T00:46:37.490Z,82.68
2018-07-23T00:47:37.491Z,82.68
2018-07-23T00:48:37.508Z,82.68
2018-07-23T00:49:37.525Z,82.78
2018-07-23T00:50:37.537Z,82.59
2018-07-23T00:51:37.556Z,82.29
2018-07-23T00:52:37.564Z,82.97
2018-07-23T00:53:37.576Z,82.68
2018-07-23T00:54:37.589Z,82.87
2018-07-23T00:55:37.599Z,83.36
2018-07-23T00:56:37.608Z,83.26
2018-07-23T00:57:37.629Z,83.45
2018-07-23T00:58:37.641Z,83.45
2018-07-23T00:59:37.655Z,83.64
2018-07-23T01:00:37.663Z,83.70
2018-07-23T01:01:37.675Z,83.61
2018-07-23T01:02:37.687Z,83.99
2018-07-23T01:03:37.690Z,84.09
2018-07-23T01:04:37.711Z,83.51
2018-07-23T01:05:37.726Z,83.94
2018-07-23T01:06:37.732Z,83.99
2018-07-23T01:07:37.749Z,84.18
2018-07-23T01:08:37.757Z,83.99
2018-07-23T01:09:37.769Z,83.99
2018-07-23T01:10:37.781Z,83.99
2018-07-23T01:11:37.797Z,84.28
2018-07-23T01:12:37.808Z,84.86
2018-07-23T01:13:37.821Z,84.86
2018-07-23T01:14:37.835Z,84.76
2018-07-23T01:15:37.846Z,84.86
2018-07-23T01:16:37.858Z,84.86
2018-07-23T01:17:37.877Z,84.66
2018-07-23T01:18:37.894Z,84.47
2018-07-23T01:19:37.892Z,84.66
2018-07-23T01:20:37.900Z,84.76
2018-07-23T01:21:37.917Z,84.86
2018-07-23T01:22:37.932Z,84.66
2018-07-23T01:23:37.948Z,84.66
2018-07-23T01:24:37.951Z,84.76
2018-07-23T01:25:37.967Z,84.76
2018-07-23T01:26:37.984Z,84.76
2018-07-23T01:27:37.996Z,84.86
2018-07-23T01:28:38.005Z,84.95
2018-07-23T01:29:38.025Z,85.05
2018-07-23T01:30:38.030Z,84.86
2018-07-23T01:31:38.044Z,84.76
2018-07-23T01:32:38.047Z,85.34
2018-07-23T01:33:38.068Z,85.43
2018-07-23T01:34:38.079Z,85.05
2018-07-23T01:35:38.097Z,85.34
2018-07-23T01:36:38.103Z,85.05
2018-07-23T01:37:38.111Z,85.53
2018-07-23T01:38:38.132Z,85.34
2018-07-23T01:39:38.143Z,85.63
2018-07-23T01:40:38.150Z,85.53
2018-07-23T01:41:38.165Z,85.43
2018-07-23T01:42:38.172Z,85.63
2018-07-23T01:43:38.187Z,86.11
2018-07-23T01:44:38.204Z,85.53
2018-07-23T01:45:38.214Z,85.72
2018-07-23T01:46:38.223Z,85.14
2018-07-23T01:47:38.238Z,85.53
2018-07-23T01:48:38.248Z,85.43
2018-07-23T01:49:38.276Z,85.34
2018-07-23T01:51:38.292Z,85.43
2018-07-23T01:52:38.304Z,85.05
2018-07-23T01:53:38.306Z,85.34
2018-07-23T01:54:38.321Z,85.24
2018-07-23T01:55:38.335Z,85.24
2018-07-23T01:56:38.349Z,85.67
2018-07-23T01:57:38.357Z,85.63
2018-07-23T01:58:38.372Z,85.67
2018-07-23T01:59:38.402Z,85.05
2018-07-23T02:00:38.406Z,85.43
2018-07-23T02:01:38.410Z,85.63
2018-07-23T02:02:38.422Z,85.47
2018-07-23T02:03:38.447Z,85.34
2018-07-23T02:04:38.454Z,85.53
2018-07-23T02:05:38.459Z,85.34
2018-07-23T02:06:38.475Z,85.53
2018-07-23T02:07:38.482Z,85.91
2018-07-23T02:08:38.517Z,85.43
2018-07-23T02:09:38.518Z,86.01
2018-07-23T02:10:38.531Z,86.01
2018-07-23T02:11:38.543Z,86.11
2018-07-23T02:12:38.546Z,85.43
2018-07-23T02:13:38.552Z,85.53
2018-07-23T02:14:38.560Z,85.53
2018-07-23T02:15:38.583Z,85.63
2018-07-23T02:16:38.596Z,84.95
2018-07-23T02:17:38.598Z,85.34
2018-07-23T02:18:38.612Z,85.53
2018-07-23T02:19:38.617Z,85.24
2018-07-23T02:20:38.662Z,85.34
2018-07-23T02:21:38.661Z,85.34
2018-07-23T02:22:38.670Z,85.53
2018-07-23T02:23:38.674Z,85.72
2018-07-23T02:24:38.711Z,85.82
2018-07-23T02:25:38.709Z,85.24
2018-07-23T02:26:38.723Z,85.63
2018-07-23T02:27:38.728Z,85.63
2018-07-23T02:28:38.776Z,86.21
2018-07-23T02:29:38.749Z,85.53
2018-07-23T02:30:38.778Z,85.24
2018-07-23T02:31:38.786Z,85.82
2018-07-23T02:32:38.798Z,86.01
2018-07-23T02:33:38.804Z,86.21
2018-07-23T02:34:38.818Z,85.43
2018-07-23T02:35:38.845Z,85.72
2018-07-23T02:36:38.834Z,85.82
2018-07-23T02:37:38.856Z,86.40
2018-07-23T02:38:38.871Z,85.91
2018-07-23T02:39:38.874Z,86.40
2018-07-23T02:40:38.908Z,86.40
2018-07-23T02:41:38.910Z,86.59
2018-07-23T02:42:38.918Z,86.74
2018-07-23T02:43:38.920Z,86.55
2018-07-23T02:44:38.931Z,86.59
2018-07-23T02:45:38.981Z,86.83
2018-07-23T02:47:38.973Z,87.32
2018-07-23T02:48:38.985Z,87.51
2018-07-23T02:49:38.998Z,87.70
2018-07-23T02:50:39.019Z,88.18
2018-07-23T02:51:39.058Z,87.99
2018-07-23T02:52:39.046Z,88.18
2018-07-23T02:53:39.058Z,88.09
2018-07-23T02:54:39.082Z,88.28
2018-07-23T02:55:39.070Z,88.81
2018-07-23T02:56:39.095Z,88.71
2018-07-23T02:57:39.089Z,88.57
2018-07-23T02:58:39.113Z,88.43
2018-07-23T02:59:39.123Z,89.10
2018-07-23T03:00:39.129Z,89.20
2018-07-23T03:01:39.137Z,89.39
2018-07-23T03:02:39.169Z,89.49
2018-07-23T03:03:39.175Z,89.39
2018-07-23T03:04:39.185Z,88.91
2018-07-23T03:05:39.194Z,88.81
2018-07-23T03:06:39.215Z,89.01
2018-07-23T03:07:39.229Z,89.20
2018-07-23T03:08:39.227Z,89.49
2018-07-23T03:09:39.261Z,89.58
2018-07-23T03:10:39.273Z,89.49
2018-07-23T03:11:39.268Z,89.58
2018-07-23T03:12:39.275Z,90.06
2018-07-23T03:13:39.294Z,89.68
2018-07-23T03:14:39.303Z,90.06
2018-07-23T03:15:39.313Z,90.55
2018-07-23T03:16:39.327Z,90.06
2018-07-23T03:17:39.348Z,90.55
2018-07-23T03:18:39.343Z,90.55
2018-07-23T03:19:39.366Z,91.22
2018-07-23T03:20:39.369Z,91.13
2018-07-23T03:21:39.380Z,91.13
2018-07-23T03:22:39.396Z,91.60
2018-07-23T03:23:39.422Z,91.22
2018-07-23T03:24:39.428Z,91.22
2018-07-23T03:25:39.436Z,91.51
2018-07-23T03:26:39.440Z,91.94
2018-07-23T03:27:39.465Z,92.61
2018-07-23T03:28:39.470Z,91.94
2018-07-23T03:29:39.475Z,92.13
2018-07-23T03:30:39.495Z,92.23
2018-07-23T03:31:39.499Z,92.33
2018-07-23T03:32:39.512Z,92.52
2018-07-23T03:33:39.531Z,92.13
2018-07-23T03:34:39.542Z,91.94
2018-07-23T03:35:39.547Z,92.43
2018-07-23T03:36:39.567Z,92.52
2018-07-23T03:37:39.569Z,92.33
2018-07-23T03:38:39.577Z,92.71
2018-07-23T03:39:39.592Z,92.91
2018-07-23T03:40:39.596Z,92.81
2018-07-23T03:41:39.615Z,92.33
2018-07-23T03:42:39.627Z,92.43
2018-07-23T03:43:39.635Z,92.23
2018-07-23T03:44:39.656Z,92.91
2018-07-23T03:45:39.677Z,93.00
2018-07-23T03:46:39.687Z,92.81
2018-07-23T03:47:39.688Z,93.00
2018-07-23T03:48:39.700Z,93.00
2018-07-23T03:49:39.711Z,93.38
2018-07-23T03:50:39.728Z,93.10
2018-07-23T03:51:39.738Z,93.29
2018-07-23T03:52:39.763Z,93.38
2018-07-23T03:53:39.760Z,93.48
2018-07-23T03:54:39.768Z,93.38
2018-07-23T03:55:39.784Z,93.68
2018-07-23T03:56:39.796Z,94.15
2018-07-23T03:57:39.801Z,94.15
2018-07-23T03:58:39.812Z,93.87
2018-07-23T03:59:39.837Z,94.15
2018-07-23T04:00:39.839Z,94.73
2018-07-23T04:01:39.848Z,94.64
2018-07-23T04:02:39.862Z,94.64
2018-07-23T04:03:39.872Z,94.45
2018-07-23T04:04:39.885Z,94.92
2018-07-23T04:05:39.914Z,95.21
2018-07-23T04:06:39.918Z,95.02
2018-07-23T04:07:39.924Z,94.92
2018-07-23T04:08:39.932Z,95.02
2018-07-23T04:09:39.947Z,94.92
2018-07-23T04:10:39.979Z,94.88
2018-07-23T04:11:39.963Z,94.92
2018-07-23T04:12:39.982Z,95.89
2018-07-23T04:13:39.992Z,95.79
2018-07-23T04:14:40.008Z,95.26
2018-07-23T04:15:40.018Z,96.13
2018-07-23T04:16:40.026Z,95.65
2018-07-23T04:17:40.043Z,95.94
2018-07-23T04:18:40.052Z,95.65
2018-07-23T04:19:40.062Z,96.42
2018-07-23T04:20:40.070Z,96.03
2018-07-23T04:21:40.087Z,96.22
2018-07-23T04:22:40.102Z,96.70
2018-07-23T04:23:40.112Z,96.51
2018-07-23T04:24:40.135Z,96.70
2018-07-23T04:25:40.132Z,96.90
2018-07-23T04:26:40.140Z,96.80
2018-07-23T04:27:40.162Z,96.90
2018-07-23T04:28:40.164Z,96.70
2018-07-23T04:29:40.178Z,96.90
2018-07-23T04:30:40.191Z,96.42
2018-07-23T04:31:40.205Z,96.51
2018-07-23T04:32:40.212Z,96.51
2018-07-23T04:33:40.228Z,96.51
2018-07-23T04:34:40.241Z,96.90
2018-07-23T04:35:40.249Z,96.80
2018-07-23T04:36:40.260Z,96.90
2018-07-23T04:37:40.285Z,97.28
2018-07-23T04:38:40.283Z,96.61
2018-07-23T04:39:40.293Z,96.51
2018-07-23T04:40:40.313Z,96.85
2018-07-23T04:41:40.316Z,96.80
2018-07-23T04:42:40.330Z,96.56
2018-07-23T04:43:40.344Z,96.75
2018-07-23T04:44:40.351Z,96.75
2018-07-23T04:45:40.369Z,96.47
2018-07-23T04:46:40.394Z,96.51
2018-07-23T04:47:40.389Z,96.80
2018-07-23T04:48:40.400Z,97.38
2018-07-23T04:49:40.410Z,97.38
2018-07-23T04:50:40.471Z,97.09
2018-07-23T04:51:40.440Z,97.38
2018-07-23T04:52:40.448Z,96.75
2018-07-23T04:53:40.460Z,97.42
2018-07-23T04:54:40.475Z,97.28
2018-07-23T04:55:40.482Z,96.99
2018-07-23T04:56:40.530Z,97.47
2018-07-23T04:57:40.512Z,97.19
2018-07-23T04:58:40.524Z,97.62
2018-07-23T04:59:40.530Z,97.76
2018-07-23T05:00:40.539Z,97.57
2018-07-23T05:01:40.561Z,98.14
2018-07-23T05:02:40.573Z,98.34
2018-07-23T05:03:40.577Z,97.96
2018-07-23T05:04:40.587Z,98.00
2018-07-23T05:05:40.606Z,98.34
2018-07-23T05:06:40.614Z,98.05
2018-07-23T05:07:40.625Z,98.34
2018-07-23T05:10:40.660Z,98.44
2018-07-23T05:11:40.673Z,98.44
2018-07-23T05:12:40.686Z,98.44
2018-07-23T05:13:40.692Z,98.63
2018-07-23T05:14:40.709Z,98.72
2018-07-23T05:15:40.719Z,98.34
2018-07-23T05:16:40.733Z,98.05
2018-07-23T05:17:40.746Z,98.53
2018-07-23T05:18:40.771Z,98.34
2018-07-23T05:19:40.763Z,97.96
2018-07-23T05:20:40.780Z,98.00
2018-07-23T05:21:40.792Z,97.62
2018-07-23T05:22:40.810Z,97.62
2018-07-23T05:23:40.824Z,97.91
2018-07-23T05:24:40.825Z,98.10
2018-07-23T05:25:40.842Z,97.91
2018-07-23T05:26:42.846Z,97.52
2018-07-23T05:27:40.859Z,97.81
2018-07-23T05:28:40.873Z,98.00
2018-07-23T05:29:40.890Z,98.19
2018-07-23T05:30:40.904Z,97.91
2018-07-23T05:31:40.944Z,97.81
2018-07-23T05:32:40.919Z,97.71
2018-07-23T05:33:40.934Z,97.24
2018-07-23T05:34:40.946Z,97.81
2018-07-23T05:35:40.957Z,97.91
2018-07-23T05:36:40.974Z,97.81
2018-07-23T05:37:40.984Z,97.81
2018-07-23T05:38:41.043Z,98.49
2018-07-23T05:39:41.005Z,98.77
2018-07-23T05:40:41.016Z,98.44
2018-07-23T05:41:41.026Z,99.06
2018-07-23T05:42:41.043Z,98.77
2018-07-23T05:43:41.050Z,98.19
2018-07-23T05:44:41.066Z,97.81
2018-07-23T05:45:41.075Z,97.81
2018-07-23T05:46:41.088Z,97.52
2018-07-23T05:47:41.101Z,97.24
2018-07-23T05:48:41.109Z,96.80
2018-07-23T05:49:41.123Z,96.56
2018-07-23T05:50:41.134Z,96.94
2018-07-23T05:51:41.149Z,96.99
2018-07-23T05:52:41.160Z,97.09
2018-07-23T05:53:41.177Z,96.51
2018-07-23T05:54:41.182Z,95.94
2018-07-23T05:55:41.202Z,95.45
2018-07-23T05:56:41.203Z,95.17
2018-07-23T05:57:41.274Z,94.87
2018-07-23T05:58:41.232Z,94.49
2018-07-23T05:59:41.247Z,95.26
2018-07-23T06:00:41.254Z,95.26
2018-07-23T06:01:41.267Z,95.07
2018-07-23T06:02:41.284Z,95.17
2018-07-23T06:03:41.314Z,94.30
2018-07-23T06:04:41.375Z,94.15
2018-07-23T06:05:41.316Z,93.62
2018-07-23T06:06:41.394Z,93.29
2018-07-23T06:07:41.343Z,93.77
2018-07-23T06:08:41.361Z,93.77
2018-07-23T06:09:41.369Z,93.38
2018-07-23T06:10:41.379Z,92.80
2018-07-23T06:11:41.391Z,92.52
2018-07-23T06:12:41.410Z,92.52
2018-07-23T06:13:41.430Z,92.61
2018-07-23T06:14:41.434Z,92.13
2018-07-23T06:15:41.449Z,91.84
2018-07-23T06:16:41.457Z,91.27
2018-07-23T06:17:41.467Z,91.41
2018-07-23T06:18:41.479Z,90.83
2018-07-23T06:19:41.491Z,90.92
2018-07-23T06:20:41.522Z,91.02
2018-07-23T06:21:41.517Z,90.54
2018-07-23T06:22:41.526Z,90.44
2018-07-23T06:23:41.539Z,89.58
2018-07-23T06:24:41.554Z,89.77
2018-07-23T06:25:41.595Z,89.33
2018-07-23T06:26:41.585Z,88.75
2018-07-23T06:27:41.596Z,88.17
2018-07-23T06:28:41.610Z,87.50
2018-07-23T06:29:41.624Z,87.30
2018-07-23T06:31:41.657Z,86.44
2018-07-23T06:32:41.729Z,86.44
2018-07-23T06:33:41.676Z,86.63
2018-07-23T06:34:41.691Z,86.44
2018-07-23T06:35:41.699Z,86.44
2018-07-23T06:36:41.723Z,86.05
2018-07-23T06:37:41.793Z,85.47
2018-07-23T06:38:41.753Z,85.96
2018-07-23T06:39:41.778Z,85.96
2018-07-23T06:40:41.794Z,86.05
2018-07-23T06:41:41.804Z,86.54
2018-07-23T06:42:41.822Z,85.57
2018-07-23T06:43:41.835Z,85.77
2018-07-23T06:44:41.914Z,85.81
2018-07-23T06:45:41.868Z,85.61
2018-07-23T06:46:41.909Z,85.71
2018-07-23T06:47:41.899Z,84.94
2018-07-23T06:49:41.930Z,83.78
2018-07-23T06:50:41.943Z,83.59
2018-07-23T06:51:41.963Z,84.07
2018-07-23T06:52:41.978Z,83.25
2018-07-23T06:53:42.002Z,83.34
2018-07-23T06:54:42.011Z,83.34
2018-07-23T06:55:42.049Z,83.05
2018-07-23T06:56:42.054Z,83.44
2018-07-23T06:57:42.064Z,82.57
2018-07-23T06:58:42.068Z,82.51
2018-07-23T06:59:42.088Z,82.32
2018-07-23T07:00:42.145Z,81.55
2018-07-23T07:01:42.128Z,81.26
2018-07-23T07:02:42.142Z,81.16
2018-07-23T07:03:42.170Z,81.01
2018-07-23T07:04:42.182Z,80.30
2018-07-23T07:05:42.196Z,80.68
2018-07-23T07:06:42.212Z,80.43
2018-07-23T07:07:42.225Z,80.14
2018-07-23T07:08:42.250Z,80.68
2018-07-23T07:09:42.259Z,80.97
2018-07-23T07:10:42.272Z,81.93
2018-07-23T07:11:42.295Z,81.26
2018-07-23T07:12:42.325Z,81.16
2018-07-23T07:13:42.338Z,80.39
2018-07-23T07:14:42.367Z,80.33
2018-07-23T07:15:42.368Z,80.30
2018-07-23T07:16:42.373Z,80.33
2018-07-23T07:17:42.408Z,79.75
2018-07-23T07:18:42.409Z,79.37
2018-07-23T07:19:42.436Z,79.91
2018-07-23T07:20:42.454Z,80.00
2018-07-23T07:21:42.464Z,79.91
2018-07-23T07:22:42.516Z,79.91
2018-07-23T07:23:42.498Z,80.14
2018-07-23T07:24:42.517Z,79.75
2018-07-23T07:25:42.538Z,79.17
2018-07-23T07:26:42.557Z,77.57
2018-07-23T07:27:42.574Z,77.28
2018-07-23T07:28:42.587Z,76.03
2018-07-23T07:29:42.603Z,75.84
2018-07-23T07:30:42.618Z,75.35
2018-07-23T07:31:42.636Z,75.45
2018-07-23T07:32:42.653Z,75.54
2018-07-23T07:33:42.674Z,75.84
2018-07-23T07:34:42.700Z,75.64
2018-07-23T07:35:42.713Z,76.51
2018-07-23T07:36:42.724Z,75.60
2018-07-23T07:37:42.739Z,74.48
2018-07-23T07:38:42.760Z,74.19
2018-07-23T07:39:42.771Z,74.00
2018-07-23T07:40:42.798Z,74.00
2018-07-23T07:41:42.810Z,72.97
2018-07-23T07:42:42.833Z,72.97
2018-07-23T07:43:42.861Z,71.66
2018-07-23T07:44:42.868Z,71.66
2018-07-23T07:45:42.890Z,71.46
2018-07-23T07:46:42.907Z,70.10
2018-07-23T07:47:42.924Z,70.34
2018-07-23T07:48:42.932Z,69.85
2018-07-23T07:49:42.957Z,70.59
2018-07-23T07:50:42.965Z,70.92
2018-07-23T07:51:42.987Z,70.62
2018-07-23T07:52:43.009Z,70.53
2018-07-23T07:53:43.027Z,69.95
2018-07-23T07:54:43.056Z,69.46
2018-07-23T07:55:43.063Z,69.85
2018-07-23T07:56:43.081Z,69.59
2018-07-23T07:57:43.099Z,69.21
2018-07-23T07:58:43.115Z,69.05
2018-07-23T07:59:43.146Z,68.66
2018-07-23T08:00:43.152Z,68.05
2018-07-23T08:01:43.165Z,68.15
2018-07-23T08:02:43.187Z,68.53
2018-07-23T08:03:43.215Z,68.43
2018-07-23T08:04:43.225Z,67.95
2018-07-23T08:05:43.243Z,66.69
2018-07-23T08:06:43.257Z,66.43
2018-07-23T08:07:43.294Z,65.85
2018-07-23T08:08:43.297Z,64.30
2018-07-23T08:09:43.321Z,64.40
2018-07-23T08:10:43.337Z,65.37
2018-07-23T08:11:43.362Z,65.63
2018-07-23T08:12:43.381Z,66.05
2018-07-23T08:13:43.387Z,65.17
2018-07-23T08:14:43.409Z,65.27
2018-07-23T08:15:43.427Z,64.92
2018-07-23T08:16:43.460Z,64.24
2018-07-23T08:17:43.467Z,63.59
2018-07-23T08:18:43.515Z,62.07
2018-07-23T08:19:43.511Z,61.49
2018-07-23T08:20:43.525Z,61.29
2018-07-23T08:21:43.544Z,60.71
2018-07-23T08:22:43.571Z,61.07
2018-07-23T08:23:43.579Z,61.65
2018-07-23T08:24:43.604Z,62.13
2018-07-23T08:25:43.624Z,61.26
2018-07-23T08:26:43.638Z,60.97
2018-07-23T08:27:43.679Z,61.36
2018-07-23T08:28:43.678Z,61.04
2018-07-23T08:29:43.710Z,61.04
2018-07-23T08:30:43.720Z,60.78
2018-07-23T08:31:43.808Z,59.74
2018-07-23T08:32:43.755Z,58.61
2018-07-23T08:33:43.769Z,58.51
2018-07-23T08:34:43.795Z,58.48
2018-07-23T08:35:43.809Z,58.87
2018-07-23T08:36:43.826Z,58.06
2018-07-23T08:37:43.850Z,58.48
2018-07-23T08:38:43.874Z,58.48
2018-07-23T08:39:43.893Z,56.35
2018-07-23T08:40:43.920Z,56.45
2018-07-23T08:41:43.926Z,56.15
2018-07-23T08:42:43.950Z,56.28
2018-07-23T08:43:43.960Z,56.01
2018-07-23T08:44:43.988Z,54.97
2018-07-23T08:45:44.007Z,54.58
2018-07-23T08:46:44.032Z,54.03
2018-07-23T08:47:44.054Z,53.93
2018-07-23T08:48:44.064Z,54.22
2018-07-23T08:49:44.084Z,54.13
2018-07-23T08:50:44.110Z,53.25
2018-07-23T08:51:44.128Z,52.57
2018-07-23T08:52:44.144Z,52.96
2018-07-23T08:53:44.211Z,52.86
2018-07-23T08:54:44.185Z,52.74
2018-07-23T08:55:44.218Z,52.72
2018-07-23T08:56:44.227Z,53.95
2018-07-23T08:57:44.253Z,55.08
2018-07-23T08:58:44.267Z,55.47
2018-07-23T09:00:44.313Z,52.72
2018-07-23T09:01:44.326Z,52.91
2018-07-23T09:02:44.347Z,52.42
2018-07-23T09:03:44.363Z,52.13
2018-07-23T09:04:44.379Z,51.84
2018-07-23T09:05:44.413Z,53.00
2018-07-23T09:06:44.427Z,50.68
2018-07-23T09:07:44.448Z,49.15
2018-07-23T09:08:44.466Z,49.44
2018-07-23T09:09:44.476Z,50.24
2018-07-23T09:10:44.505Z,50.04
2018-07-23T09:11:44.519Z,49.97
2018-07-23T09:12:44.549Z,49.00
2018-07-23T09:13:44.570Z,47.96
2018-07-23T09:14:44.588Z,47.56
2018-07-23T09:15:44.637Z,47.00
2018-07-23T09:16:44.630Z,46.71
2018-07-23T09:17:44.649Z,46.13
2018-07-23T09:18:44.661Z,46.64
2018-07-23T09:19:44.687Z,46.73
2018-07-23T09:20:44.703Z,46.08
2018-07-23T09:21:44.731Z,46.08
2018-07-23T09:22:44.759Z,45.49
2018-07-23T09:23:44.774Z,45.20
2018-07-23T09:24:44.798Z,44.90
2018-07-23T09:25:44.820Z,45.03
2018-07-23T09:26:44.841Z,44.81
2018-07-23T09:27:44.852Z,45.00
2018-07-23T09:28:44.876Z,45.88
2018-07-23T09:29:44.891Z,45.10
2018-07-23T09:30:44.917Z,44.34
2018-07-23T09:31:44.932Z,43.08
2018-07-23T09:32:44.963Z,42.79
2018-07-23T09:33:44.981Z,42.80
2018-07-23T09:34:45.003Z,42.79
2018-07-23T09:35:45.013Z,43.64
2018-07-23T09:36:45.043Z,44.20
2018-07-23T09:37:45.064Z,45.35
2018-07-23T09:38:45.081Z,46.40
2018-07-23T09:39:45.089Z,46.81
2018-07-23T09:40:45.123Z,47.13
2018-07-23T09:41:45.144Z,46.08
2018-07-23T09:42:45.161Z,45.51
2018-07-23T09:43:45.184Z,44.95
2018-07-23T09:44:45.204Z,44.38
2018-07-23T09:45:45.227Z,44.31
2018-07-23T09:46:45.247Z,43.53
2018-07-23T09:47:45.264Z,43.26
2018-07-23T09:48:45.284Z,42.97
2018-07-23T09:50:45.332Z,42.60
2018-07-23T09:51:45.353Z,42.68
2018-07-23T09:52:45.414Z,43.53
2018-07-23T09:53:45.395Z,43.92
2018-07-23T09:54:45.420Z,43.07
2018-07-23T09:55:45.433Z,42.87
2018-07-23T09:56:45.460Z,42.68
2018-07-23T09:57:45.488Z,42.60
2018-07-23T09:58:45.503Z,42.30
2018-07-23T09:59:45.520Z,42.87
2018-07-23T10:00:45.538Z,43.43
2018-07-23T10:01:45.554Z,43.92
2018-07-23T10:02:45.593Z,43.07
2018-07-23T10:03:45.599Z,43.26
2018-07-23T10:04:45.632Z,45.07
2018-07-23T10:05:45.658Z,45.09
2018-07-23T10:06:45.670Z,46.31
2018-07-23T10:07:45.685Z,46.02
2018-07-23T10:08:45.707Z,46.78
2018-07-23T10:09:45.741Z,46.88
2018-07-23T10:10:45.759Z,47.44
2018-07-23T10:12:45.797Z,46.31
2018-07-23T10:13:45.825Z,45.36
2018-07-23T10:14:45.839Z,44.87
2018-07-23T10:15:45.862Z,44.58
2018-07-23T10:16:45.922Z,44.70
2018-07-23T10:17:45.911Z,44.06
2018-07-23T10:18:45.925Z,42.93
2018-07-23T10:19:45.941Z,41.23
2018-07-23T10:20:45.963Z,39.72
2018-07-23T10:21:45.985Z,37.50
2018-07-23T10:22:46.007Z,36.75
2018-07-23T10:23:46.027Z,35.88
2018-07-23T10:24:46.050Z,35.78
2018-07-23T10:25:46.071Z,35.49
2018-07-23T10:26:46.094Z,35.49
2018-07-23T10:27:46.120Z,36.38
2018-07-23T10:28:46.137Z,36.07
2018-07-23T10:29:46.164Z,36.26
2018-07-23T10:30:46.182Z,36.74
2018-07-23T10:31:46.202Z,36.75
2018-07-23T10:32:46.222Z,36.47
2018-07-23T10:33:46.242Z,35.88
2018-07-23T10:34:46.269Z,36.30
2018-07-23T10:35:46.289Z,36.24
2018-07-23T10:36:46.307Z,37.76
2018-07-23T10:37:46.338Z,39.76
2018-07-23T10:38:46.358Z,40.35
2018-07-23T10:39:46.377Z,40.45
2018-07-23T10:40:46.409Z,41.00
2018-07-23T10:41:46.423Z,41.58
2018-07-23T10:42:46.445Z,41.03
2018-07-23T10:43:46.478Z,40.37
2018-07-23T10:44:46.494Z,40.35
2018-07-23T10:45:46.510Z,41.23
2018-07-23T10:46:46.586Z,41.31
2018-07-23T10:47:46.588Z,41.41
2018-07-23T10:48:46.589Z,41.03
2018-07-23T10:49:46.593Z,41.13
2018-07-23T10:50:46.621Z,39.90
2018-07-23T10:51:46.640Z,39.61
2018-07-23T10:52:46.661Z,39.61
2018-07-23T10:53:46.676Z,39.11
2018-07-23T10:54:46.710Z,38.74
2018-07-23T10:55:46.734Z,38.17
2018-07-23T10:56:46.754Z,38.45
2018-07-23T10:57:46.780Z,39.59
2018-07-23T10:58:46.796Z,39.49
2018-07-23T10:59:46.813Z,39.51
2018-07-23T11:00:46.844Z,39.09
2018-07-23T11:01:46.857Z,38.35
2018-07-23T11:02:46.883Z,37.27
2018-07-23T11:03:46.902Z,37.76
2018-07-23T11:04:46.923Z,37.38
2018-07-23T11:05:46.948Z,37.30
2018-07-23T11:06:46.970Z,37.27
2018-07-23T11:07:46.993Z,37.54
2018-07-23T11:08:47.014Z,37.92
2018-07-23T11:09:47.033Z,37.73
2018-07-23T11:10:47.058Z,38.12
2018-07-23T11:11:47.090Z,37.29
2018-07-23T11:12:47.169Z,35.67
2018-07-23T11:13:47.122Z,34.13
2018-07-23T11:14:47.143Z,32.51
2018-07-23T11:15:47.167Z,32.21
2018-07-23T11:16:47.186Z,32.95
2018-07-23T11:17:47.213Z,34.87
2018-07-23T11:18:47.238Z,36.22
2018-07-23T11:19:47.253Z,37.56
2018-07-23T11:20:47.275Z,38.60
2018-07-23T11:21:47.295Z,38.92
2018-07-23T11:22:47.403Z,39.01
2018-07-23T11:23:47.340Z,38.66
2018-07-23T11:24:47.415Z,37.29
2018-07-23T11:26:47.406Z,36.32
2018-07-23T11:27:47.428Z,35.47
2018-07-23T11:28:47.445Z,34.74
2018-07-23T11:29:47.473Z,33.29
2018-07-23T11:30:47.496Z,32.44
2018-07-23T11:31:47.524Z,32.72
2018-07-23T11:32:47.543Z,32.72
2018-07-23T11:33:47.561Z,33.20
2018-07-23T11:34:47.587Z,34.43
2018-07-23T11:35:47.604Z,34.53
2018-07-23T11:36:47.623Z,34.64
2018-07-23T11:37:47.648Z,33.58
2018-07-23T11:38:47.664Z,32.79
2018-07-23T11:39:47.692Z,33.07
2018-07-23T11:40:47.713Z,33.05
2018-07-23T11:41:47.738Z,33.25
2018-07-23T11:42:47.839Z,33.34
2018-07-23T11:43:47.776Z,33.46
2018-07-23T11:44:47.801Z,32.80
2018-07-23T11:45:47.828Z,32.60
2018-07-23T11:46:47.846Z,33.01
2018-07-23T11:47:47.872Z,31.78
2018-07-23T11:48:47.895Z,30.83
2018-07-23T11:49:47.921Z,29.96
2018-07-23T11:50:47.962Z,29.39
2018-07-23T11:51:47.956Z,28.63
2018-07-23T11:52:47.976Z,28.05
2018-07-23T11:53:48.008Z,27.57
2018-07-23T11:54:48.019Z,27.57
2018-07-23T11:55:48.046Z,27.26
2018-07-23T11:56:48.092Z,27.98
2018-07-23T11:57:48.118Z,29.60
2018-07-23T11:58:48.112Z,30.17
2018-07-23T11:59:48.123Z,31.34
2018-07-23T12:00:48.156Z,31.70
2018-07-23T12:01:48.216Z,32.29
2018-07-23T12:02:48.208Z,32.29
2018-07-23T12:03:48.222Z,32.36
2018-07-23T12:04:48.244Z,32.59
2018-07-23T12:05:48.283Z,31.83
2018-07-23T12:06:48.293Z,31.83
2018-07-23T12:07:48.333Z,31.93
2018-07-23T12:08:48.338Z,32.32
2018-07-23T12:09:48.374Z,32.80
2018-07-23T12:10:48.380Z,34.53
2018-07-23T12:12:48.425Z,33.77
2018-07-23T12:13:48.449Z,33.59
2018-07-23T12:14:48.480Z,33.31
2018-07-23T12:15:48.494Z,31.98
2018-07-23T12:16:48.515Z,30.47
2018-07-23T12:17:48.536Z,28.85
2018-07-23T12:18:48.560Z,27.58
2018-07-23T12:19:48.588Z,27.27
2018-07-23T12:20:48.608Z,27.84
2018-07-23T12:21:48.638Z,27.92
2018-07-23T12:22:48.658Z,27.56
2018-07-23T12:23:48.675Z,27.94
2018-07-23T12:25:48.723Z,28.78
2018-07-23T12:26:48.745Z,29.46
2018-07-23T12:27:48.764Z,30.71
2018-07-23T12:28:48.788Z,29.77
2018-07-23T12:29:48.808Z,28.34
2018-07-23T12:30:48.831Z,27.19
2018-07-23T12:31:48.860Z,27.55
2018-07-23T12:32:48.884Z,28.21
2018-07-23T12:33:48.899Z,28.59
2018-07-23T12:35:48.952Z,28.97
2018-07-23T12:36:48.971Z,27.91
2018-07-23T12:37:49.001Z,27.06
2018-07-23T12:38:49.019Z,27.16
2018-07-23T12:39:49.131Z,27.84
2018-07-23T12:40:49.062Z,27.64
2018-07-23T12:41:49.101Z,28.01
2018-07-23T12:42:49.110Z,27.83
2018-07-23T12:44:49.167Z,27.64
2018-07-23T12:45:49.189Z,28.59
2018-07-23T12:46:49.199Z,28.38
2018-07-23T12:48:49.252Z,30.88
2018-07-23T12:49:49.273Z,30.91
2018-07-23T12:50:49.306Z,29.86
2018-07-23T12:51:49.345Z,29.82
2018-07-23T12:52:49.341Z,29.85
2018-07-23T12:53:49.378Z,30.20
2018-07-23T12:54:49.388Z,30.21
2018-07-23T12:55:49.418Z,30.78
2018-07-23T12:56:49.455Z,31.73
2018-07-23T12:57:49.458Z,32.23
2018-07-23T12:58:49.483Z,32.49
2018-07-23T12:59:49.514Z,32.77
2018-07-23T13:00:49.523Z,32.49
2018-07-23T13:01:49.552Z,32.89
2018-07-23T13:02:49.571Z,32.04
2018-07-23T13:03:49.587Z,30.61
2018-07-23T13:04:49.616Z,29.37
2018-07-23T13:05:49.635Z,28.23
2018-07-23T13:07:49.694Z,25.84
2018-07-23T13:08:49.707Z,25.07